Time;durP1;ratioP1;P1;durP2;ratioP2;P2;SDS_P1;SDS_P2;PMS_P1;PMS_P2;Temp;Humidity;BMP_temperature;BMP_pressure;BME280_temperature;BME280_humidity;BME280_pressure;Samples;Min_cycle;Max_cycle;Signal;HPM_P1;HPM_P2
2022/01/22 00:00:53;;;;;;;6.45;2.42;;;5.50;99.90;;;;;;5095287;28;20047;-74
2022/01/22 00:03:19;;;;;;;10.98;2.05;;;5.60;99.90;;;;;;5078870;28;20093;-76
2022/01/22 00:05:45;;;;;;;10.05;2.92;;;5.50;99.90;;;;;;5086567;28;20044;-73
2022/01/22 00:08:11;;;;;;;10.50;2.20;;;5.50;99.90;;;;;;5078901;28;20037;-72
2022/01/22 00:10:41;;;;;;;9.05;1.55;;;5.50;99.90;;;;;;5079750;28;20359;-74
2022/01/22 00:14:23;;;;;;;7.65;2.10;;;5.60;99.90;;;;;;5080747;28;20177;-73
2022/01/22 00:15:53;;;;;;;11.20;2.15;;;5.60;99.90;;;;;;5079149;28;20166;-74
2022/01/22 00:18:18;;;;;;;7.50;1.70;;;5.60;99.90;;;;;;5087936;28;20048;-75
2022/01/22 00:20:44;;;;;;;7.68;1.85;;;5.50;99.90;;;;;;5078274;28;20055;-74
2022/01/22 00:23:10;;;;;;;17.50;3.90;;;5.60;99.90;;;;;;5079839;28;20123;-73
2022/01/22 00:25:36;;;;;;;10.23;2.30;;;5.60;99.90;;;;;;5083214;28;20040;-75
2022/01/22 00:28:02;;;;;;;6.82;2.08;;;5.60;99.90;;;;;;5092839;28;20458;-73
2022/01/22 00:30:29;;;;;;;8.82;1.90;;;5.60;99.90;;;;;;5097413;28;20519;-73
2022/01/22 00:32:54;;;;;;;12.45;2.17;;;5.60;99.90;;;;;;5085326;28;20057;-74
2022/01/22 00:35:22;;;;;;;8.30;3.28;;;5.60;99.90;;;;;;5086512;28;20527;-75
2022/01/22 00:37:50;;;;;;;9.65;1.70;;;5.60;99.90;;;;;;5084980;28;20044;-73
2022/01/22 00:40:17;;;;;;;8.90;1.90;;;5.60;99.90;;;;;;5094961;28;20036;-74
2022/01/22 00:42:45;;;;;;;8.90;1.73;;;5.60;99.90;;;;;;5078092;28;20100;-73
2022/01/22 00:45:11;;;;;;;7.15;2.30;;;5.60;99.90;;;;;;5079113;28;20048;-73
2022/01/22 00:47:38;;;;;;;8.30;2.67;;;5.70;99.90;;;;;;5077423;28;20059;-72
2022/01/22 00:50:07;;;;;;;9.98;1.52;;;5.60;99.90;;;;;;5077543;28;20104;-73
2022/01/22 00:52:33;;;;;;;5.38;2.03;;;5.70;99.90;;;;;;5078523;28;20697;-74
2022/01/22 00:54:58;;;;;;;4.70;1.58;;;5.70;99.90;;;;;;5079097;28;20112;-75
2022/01/22 00:57:24;;;;;;;7.68;1.88;;;5.70;99.90;;;;;;5083434;28;20040;-74
2022/01/22 00:59:50;;;;;;;4.13;1.10;;;5.70;99.90;;;;;;5077881;28;20536;-74
2022/01/22 01:02:16;;;;;;;4.45;1.17;;;5.70;99.90;;;;;;5096881;28;20121;-74
2022/01/22 01:04:41;;;;;;;2.88;1.30;;;5.70;99.90;;;;;;5086832;28;20037;-73
2022/01/22 01:07:07;;;;;;;5.07;1.60;;;5.70;99.90;;;;;;5086578;28;20036;-74
2022/01/22 01:09:36;;;;;;;5.07;1.25;;;5.70;99.90;;;;;;5087988;28;20036;-74
2022/01/22 01:12:05;;;;;;;9.55;1.33;;;5.70;99.90;;;;;;5079162;28;20045;-75
2022/01/22 01:14:38;;;;;;;3.90;1.08;;;5.70;99.90;;;;;;5083314;28;20087;-74
2022/01/22 01:33:21;;;;;;;3.80;1.23;;;5.90;99.90;;;;;;5115376;28;20052;-73
2022/01/22 01:35:47;;;;;;;5.65;1.90;;;6.00;99.90;;;;;;5078233;28;20053;-71
2022/01/22 01:38:13;;;;;;;2.63;1.05;;;5.80;99.90;;;;;;5078066;28;20451;-72
2022/01/22 01:40:42;;;;;;;4.50;1.30;;;5.80;99.90;;;;;;5079082;28;20049;-72
2022/01/22 01:43:19;;;;;;;4.18;1.40;;;5.80;99.90;;;;;;5077347;28;20111;-74
2022/01/22 01:45:44;;;;;;;;;;;5.90;99.90;;;;;;5081462;28;20053;-72
2022/01/22 01:48:16;;;;;;;7.43;1.50;;;5.90;99.90;;;;;;5081831;28;20019;-73
2022/01/22 01:50:43;;;;;;;3.55;1.40;;;5.80;99.90;;;;;;5082578;28;20042;-72
2022/01/22 01:53:27;;;;;;;9.90;2.08;;;5.90;99.90;;;;;;5098540;28;20134;-73
2022/01/22 01:58:28;;;;;;;3.13;1.40;;;6.00;99.90;;;;;;5099044;28;20040;-71
2022/01/22 02:00:54;;;;;;;5.82;1.50;;;5.90;99.90;;;;;;5088021;28;20036;-74
2022/01/22 02:03:21;;;;;;;3.20;1.20;;;5.90;99.90;;;;;;5102184;28;20056;-74
2022/01/22 02:05:46;;;;;;;5.97;1.60;;;6.00;99.90;;;;;;5099543;28;20044;-72
2022/01/22 02:08:13;;;;;;;5.38;1.33;;;6.00;99.90;;;;;;5083448;28;20090;-73
2022/01/22 02:10:45;;;;;;;5.03;1.60;;;5.90;99.90;;;;;;5103545;28;20096;-71
2022/01/22 02:24:12;;;;;;;3.95;1.30;;;6.00;99.90;;;;;;5081917;28;20056;-73
2022/01/22 02:26:37;;;;;;;4.60;1.55;;;6.00;99.90;;;;;;5079704;28;20106;-72
2022/01/22 02:29:04;;;;;;;7.32;1.98;;;6.00;99.90;;;;;;5082099;28;20427;-73
2022/01/22 02:31:41;;;;;;;6.25;1.73;;;6.00;99.90;;;;;;5084684;28;20052;-73
2022/01/22 02:34:31;;;;;;;6.28;1.88;;;6.00;99.90;;;;;;5080761;28;20060;-73
2022/01/22 02:37:11;;;;;;;6.32;1.60;;;6.00;99.90;;;;;;5095170;28;20052;-73
2022/01/22 02:42:02;;;;;;;3.33;1.60;;;6.00;99.90;;;;;;5081036;28;20053;-73
2022/01/22 02:44:36;;;;;;;8.60;1.67;;;6.00;99.90;;;;;;5080041;28;20036;-73
2022/01/22 02:47:05;;;;;;;4.20;1.20;;;6.00;99.90;;;;;;5080124;28;20078;-74
2022/01/22 02:49:31;;;;;;;5.88;1.38;;;6.00;99.90;;;;;;5090721;28;20038;-73
2022/01/22 02:52:03;;;;;;;2.90;1.10;;;6.00;99.90;;;;;;5091386;28;20070;-73
2022/01/22 02:54:29;;;;;;;3.78;1.10;;;6.10;99.90;;;;;;5081442;28;20403;-74
2022/01/22 02:56:55;;;;;;;6.45;1.42;;;6.20;99.90;;;;;;5079755;28;20075;-77
2022/01/22 02:59:23;;;;;;;4.32;2.15;;;6.10;99.90;;;;;;5088868;28;20052;-72
2022/01/22 03:01:49;;;;;;;7.30;1.40;;;6.10;99.90;;;;;;5085928;28;20074;-73
2022/01/22 03:04:15;;;;;;;4.82;1.33;;;6.00;99.90;;;;;;5086606;28;20044;-73
2022/01/22 03:06:41;;;;;;;6.25;1.35;;;6.10;99.90;;;;;;5089166;28;20055;-74
2022/01/22 03:09:09;;;;;;;5.63;1.65;;;6.00;99.90;;;;;;5084856;28;20040;-74
2022/01/22 03:11:45;;;;;;;3.42;1.40;;;6.10;99.90;;;;;;5080249;28;20496;-75
2022/01/22 03:27:30;;;;;;;6.45;1.30;;;6.00;99.90;;;;;;5081145;28;20052;-73
2022/01/22 03:29:56;;;;;;;5.32;1.50;;;6.10;99.90;;;;;;5091504;28;20044;-76
2022/01/22 03:32:24;;;;;;;5.78;1.70;;;6.00;99.90;;;;;;5097207;28;20165;-76
2022/01/22 03:34:59;;;;;;;6.15;1.35;;;6.00;99.90;;;;;;5096483;28;20396;-75
2022/01/22 03:37:27;;;;;;;5.28;2.58;;;6.00;99.90;;;;;;5093082;28;20057;-73
2022/01/22 03:39:54;;;;;;;7.82;1.50;;;6.00;99.90;;;;;;5079904;28;20044;-73
2022/01/22 03:42:21;;;;;;;7.15;1.48;;;6.00;99.90;;;;;;5085835;28;20040;-75
2022/01/22 03:44:47;;;;;;;8.52;1.35;;;6.00;99.90;;;;;;5083519;28;20102;-73
2022/01/22 03:47:12;;;;;;;4.93;1.52;;;6.00;99.90;;;;;;5092105;28;20029;-75
2022/01/22 03:49:38;;;;;;;9.23;1.70;;;6.00;99.90;;;;;;5080588;28;20073;-74
2022/01/22 03:52:05;;;;;;;9.00;1.70;;;6.00;99.90;;;;;;5079368;28;20037;-75
2022/01/22 03:54:31;;;;;;;5.03;1.30;;;6.00;99.90;;;;;;5084639;28;20040;-73
2022/01/22 03:56:56;;;;;;;4.03;1.30;;;6.00;99.90;;;;;;5091099;28;20066;-74
2022/01/22 03:59:22;;;;;;;6.40;1.30;;;6.00;99.90;;;;;;5079456;28;20036;-74
2022/01/22 04:09:45;;;;;;;3.92;1.38;;;6.00;99.90;;;;;;5078867;28;20044;-74
2022/01/22 04:12:15;;;;;;;4.53;1.20;;;5.90;99.90;;;;;;5081188;28;20044;-74
2022/01/22 04:14:53;;;;;;;5.93;1.75;;;5.90;99.90;;;;;;5084487;28;20512;-75
2022/01/22 04:17:34;;;;;;;4.38;1.45;;;5.90;99.90;;;;;;5078551;28;20048;-74
2022/01/22 04:25:33;;;;;;;4.03;1.10;;;6.00;99.90;;;;;;5078585;28;20049;-76
2022/01/22 04:28:18;;;;;;;4.93;1.45;;;5.90;99.90;;;;;;5086308;28;20051;-75
2022/01/22 04:30:45;;;;;;;4.60;1.00;;;6.00;99.90;;;;;;5078643;28;20040;-74
2022/01/22 04:33:11;;;;;;;6.25;1.58;;;6.00;99.90;;;;;;5090275;28;20057;-77
2022/01/22 04:35:37;;;;;;;3.50;1.05;;;5.90;99.90;;;;;;5082190;28;20048;-76
2022/01/22 04:38:03;;;;;;;7.00;1.48;;;5.90;99.90;;;;;;5084764;28;20036;-72
2022/01/22 04:40:29;;;;;;;4.68;1.30;;;5.90;99.90;;;;;;5080584;28;20100;-74
2022/01/22 04:42:56;;;;;;;3.22;1.30;;;5.90;99.90;;;;;;5080201;28;20104;-73
2022/01/22 04:48:12;;;;;;;3.28;1.20;;;5.90;99.90;;;;;;5077911;28;20056;-72
2022/01/22 04:56:07;;;;;;;5.35;1.48;;;5.90;99.90;;;;;;5078190;28;20052;-73
2022/01/22 04:58:33;;;;;;;5.03;1.50;;;5.90;99.90;;;;;;5079433;28;20037;-72
2022/01/22 05:00:59;;;;;;;3.58;1.20;;;5.80;99.90;;;;;;5078312;28;20048;-73
2022/01/22 05:03:24;;;;;;;7.47;1.50;;;5.90;99.90;;;;;;5077461;28;20104;-73
2022/01/22 05:05:50;;;;;;;3.63;1.10;;;5.90;99.90;;;;;;5079053;28;20043;-73
2022/01/22 05:08:15;;;;;;;3.05;1.13;;;5.90;99.90;;;;;;5081219;28;20050;-73
2022/01/22 05:10:41;;;;;;;3.42;1.10;;;5.80;99.90;;;;;;5090398;28;20047;-75
2022/01/22 05:13:07;;;;;;;3.90;1.25;;;5.90;99.90;;;;;;5080632;28;20170;-76
2022/01/22 05:15:32;;;;;;;3.58;1.00;;;5.90;99.90;;;;;;5084168;28;20048;-73
2022/01/22 05:17:58;;;;;;;3.78;1.40;;;5.90;99.90;;;;;;5078495;28;20041;-73
2022/01/22 05:20:29;;;;;;;3.42;1.20;;;5.90;99.90;;;;;;5093740;28;20036;-73
2022/01/22 05:23:05;;;;;;;3.95;1.00;;;5.90;99.90;;;;;;5091580;28;20115;-72
2022/01/22 05:25:41;;;;;;;3.97;1.20;;;5.90;99.90;;;;;;5078059;28;20052;-75
2022/01/22 05:38:22;;;;;;;5.88;1.48;;;5.90;99.90;;;;;;5083496;28;20045;-75
2022/01/22 05:40:48;;;;;;;4.70;1.30;;;5.90;99.90;;;;;;5079019;28;20097;-74
2022/01/22 05:43:14;;;;;;;8.73;1.45;;;5.80;99.90;;;;;;5092503;28;20048;-73
2022/01/22 05:45:41;;;;;;;3.17;1.05;;;5.80;99.90;;;;;;5099117;28;20072;-73
2022/01/22 05:48:06;;;;;;;2.97;1.02;;;5.80;99.90;;;;;;5094255;28;20116;-75
2022/01/22 05:50:43;;;;;;;2.00;0.90;;;5.80;99.90;;;;;;5077682;28;20096;-75
2022/01/22 05:53:25;;;;;;;4.47;1.00;;;5.80;99.90;;;;;;5077153;28;20080;-75
2022/01/22 06:01:06;;;;;;;2.75;0.77;;;5.80;99.90;;;;;;5087985;28;20040;-72
2022/01/22 06:03:32;;;;;;;3.67;0.98;;;5.80;99.90;;;;;;5091338;28;20044;-74
2022/01/22 06:05:58;;;;;;;4.15;0.70;;;5.80;99.90;;;;;;5078481;28;20045;-73
2022/01/22 06:08:29;;;;;;;3.28;0.80;;;5.80;99.90;;;;;;5077332;28;20448;-74
2022/01/22 06:10:58;;;;;;;2.33;0.73;;;5.80;99.90;;;;;;5078810;28;20053;-72
2022/01/22 06:13:30;;;;;;;3.65;1.10;;;5.80;99.90;;;;;;5077312;28;20032;-74
2022/01/22 06:15:56;;;;;;;2.67;0.88;;;5.80;99.90;;;;;;5078725;28;20502;-75
2022/01/22 06:18:22;;;;;;;4.10;1.40;;;5.90;99.90;;;;;;5078154;28;20051;-74
2022/01/22 06:20:47;;;;;;;2.13;0.90;;;5.80;99.90;;;;;;5090077;28;20100;-74
2022/01/22 06:23:13;;;;;;;3.55;1.40;;;5.80;99.90;;;;;;5078607;28;20055;-76
2022/01/22 06:25:39;;;;;;;5.75;1.30;;;5.90;99.90;;;;;;5077088;28;20049;-75
2022/01/22 06:28:05;;;;;;;3.42;1.02;;;5.80;99.90;;;;;;5087244;28;20055;-74
2022/01/22 06:30:32;;;;;;;2.47;0.70;;;5.80;99.90;;;;;;5082874;28;20024;-74
2022/01/22 06:32:57;;;;;;;3.22;1.35;;;5.90;99.90;;;;;;5088576;28;20051;-76
2022/01/22 06:35:23;;;;;;;2.13;0.70;;;5.80;99.90;;;;;;5079565;28;20040;-74
2022/01/22 06:37:52;;;;;;;3.13;1.00;;;5.80;99.90;;;;;;5081166;28;20462;-74
2022/01/22 06:42:43;;;;;;;3.78;0.98;;;5.80;99.90;;;;;;5100986;28;20056;-74
2022/01/22 06:45:09;;;;;;;7.18;1.17;;;5.80;99.90;;;;;;5084003;28;20044;-74
2022/01/22 06:47:35;;;;;;;4.20;0.98;;;5.80;99.90;;;;;;5080899;28;20540;-75
2022/01/22 06:50:02;;;;;;;3.38;1.23;;;5.80;99.90;;;;;;5081458;28;20040;-75
2022/01/22 06:52:29;;;;;;;4.97;1.20;;;5.80;99.90;;;;;;5079755;28;20094;-74
2022/01/22 06:57:40;;;;;;;10.63;1.80;;;5.80;99.90;;;;;;5081778;28;20080;-74
2022/01/22 07:00:06;;;;;;;8.07;1.10;;;5.80;99.90;;;;;;5080440;28;20048;-77
2022/01/22 07:02:32;;;;;;;5.50;1.55;;;5.80;99.90;;;;;;5079872;28;20044;-75
2022/01/22 07:04:58;;;;;;;5.45;1.52;;;5.80;99.90;;;;;;5079624;28;20040;-73
2022/01/22 07:07:23;;;;;;;4.97;1.30;;;5.80;99.90;;;;;;5081114;28;20048;-75
2022/01/22 07:09:49;;;;;;;4.90;1.45;;;5.80;99.90;;;;;;5080934;28;20052;-74
2022/01/22 07:12:15;;;;;;;5.53;1.60;;;5.80;99.90;;;;;;5083901;28;20071;-75
2022/01/22 07:14:42;;;;;;;3.97;1.10;;;5.90;99.90;;;;;;5094385;28;20036;-73
2022/01/22 07:17:08;;;;;;;6.82;2.47;;;5.90;99.90;;;;;;5079720;28;20069;-73
2022/01/22 07:19:39;;;;;;;4.70;1.38;;;5.80;99.90;;;;;;5091583;28;20040;-72
2022/01/22 07:22:19;;;;;;;6.65;1.25;;;5.80;99.90;;;;;;5093513;28;20049;-75
2022/01/22 07:24:45;;;;;;;5.07;1.50;;;5.80;99.90;;;;;;5080971;28;20052;-74
2022/01/22 07:27:11;;;;;;;6.00;1.58;;;5.80;99.90;;;;;;5080409;28;20070;-73
2022/01/22 07:29:36;;;;;;;5.78;1.50;;;5.80;99.90;;;;;;5113111;28;20040;-73
2022/01/22 07:32:05;;;;;;;3.67;1.33;;;5.80;99.90;;;;;;5080959;28;20075;-72
2022/01/22 07:34:31;;;;;;;5.53;1.55;;;5.80;99.90;;;;;;5079357;28;20057;-74
2022/01/22 07:37:02;;;;;;;3.70;1.48;;;5.80;99.90;;;;;;5080680;28;20084;-73
2022/01/22 07:39:27;;;;;;;4.35;1.30;;;5.80;99.90;;;;;;5079900;28;20123;-73
2022/01/22 07:41:53;;;;;;;4.57;1.50;;;5.80;99.90;;;;;;5079713;28;20051;-76
2022/01/22 07:44:19;;;;;;;7.50;1.40;;;5.80;99.90;;;;;;5079873;28;20044;-74
2022/01/22 07:46:44;;;;;;;5.13;1.58;;;5.80;99.90;;;;;;5079210;28;20045;-72
2022/01/22 07:49:10;;;;;;;3.45;1.30;;;5.80;99.90;;;;;;5080232;28;20048;-74
2022/01/22 07:51:36;;;;;;;3.78;1.35;;;5.80;99.90;;;;;;5096967;28;20105;-73
2022/01/22 07:54:02;;;;;;;3.83;1.38;;;5.80;99.90;;;;;;5082083;28;20051;-75
2022/01/22 07:56:27;;;;;;;4.65;1.30;;;5.90;99.90;;;;;;5079185;28;20062;-74
2022/01/22 07:58:53;;;;;;;4.32;1.20;;;5.90;99.90;;;;;;5080217;28;20067;-74
2022/01/22 08:01:19;;;;;;;3.58;1.20;;;5.80;99.90;;;;;;5082857;28;20045;-72
2022/01/22 08:03:44;;;;;;;3.40;1.33;;;5.90;99.90;;;;;;5079241;28;20402;-73
2022/01/22 08:06:10;;;;;;;5.20;1.42;;;5.90;99.90;;;;;;5089851;28;20048;-74
2022/01/22 08:08:37;;;;;;;5.03;1.50;;;5.80;99.90;;;;;;5097082;28;20036;-75
2022/01/22 08:11:03;;;;;;;3.72;1.40;;;5.80;99.90;;;;;;5090567;28;20074;-72
2022/01/22 08:13:29;;;;;;;2.63;1.13;;;5.90;99.90;;;;;;5078604;28;20041;-74
2022/01/22 08:15:56;;;;;;;4.22;1.40;;;5.90;99.90;;;;;;5097566;28;20052;-76
2022/01/22 08:18:22;;;;;;;4.40;1.30;;;5.90;99.90;;;;;;5078800;28;20036;-74
2022/01/22 08:20:47;;;;;;;5.13;1.98;;;5.90;99.90;;;;;;5080543;28;20105;-74
2022/01/22 08:23:13;;;;;;;3.70;1.30;;;5.90;99.90;;;;;;5079561;28;20040;-74
2022/01/22 08:25:43;;;;;;;5.20;1.58;;;5.90;99.90;;;;;;5078560;28;20059;-73
2022/01/22 08:30:55;;;;;;;4.57;1.00;;;5.90;99.90;;;;;;5079187;28;20526;-76
2022/01/22 08:35:52;;;;;;;2.08;0.82;;;5.90;99.90;;;;;;5095873;28;20062;-74
2022/01/22 08:36:16;;;;;;;6.55;1.13;;;5.80;99.90;;;;;;5095898;28;20057;-77
2022/01/22 08:38:41;;;;;;;3.22;1.10;;;6.00;99.90;;;;;;5093691;28;20135;-73
2022/01/22 08:41:09;;;;;;;5.00;1.00;;;5.90;99.90;;;;;;5090205;28;20044;-75
2022/01/22 08:43:35;;;;;;;4.25;1.02;;;5.90;99.90;;;;;;5086999;28;20037;-75
2022/01/22 08:46:02;;;;;;;2.95;1.35;;;5.90;99.90;;;;;;5079438;28;20071;-76
2022/01/22 08:48:28;;;;;;;4.97;1.10;;;5.90;99.90;;;;;;5080867;28;20492;-77
2022/01/22 08:50:54;;;;;;;3.70;1.10;;;5.90;99.90;;;;;;5088302;28;20115;-75
2022/01/22 08:53:20;;;;;;;3.55;1.05;;;5.90;99.90;;;;;;5098793;28;20040;-72
2022/01/22 08:55:46;;;;;;;3.15;1.05;;;5.90;99.90;;;;;;5082673;28;20059;-74
2022/01/22 08:58:12;;;;;;;3.28;1.05;;;5.90;99.90;;;;;;5086773;28;20557;-76
2022/01/22 09:00:39;;;;;;;3.88;1.30;;;6.00;99.90;;;;;;5077720;28;20052;-74
2022/01/22 09:03:05;;;;;;;4.10;1.10;;;6.00;99.90;;;;;;5079047;28;20051;-76
2022/01/22 09:05:35;;;;;;;2.95;1.10;;;6.00;99.90;;;;;;5078175;28;20033;-75
2022/01/22 09:08:02;;;;;;;3.17;1.10;;;6.00;99.90;;;;;;5078375;28;20044;-76
2022/01/22 09:10:28;;;;;;;3.83;1.10;;;6.00;99.90;;;;;;5079280;28;20079;-76
2022/01/22 09:12:53;;;;;;;3.50;1.00;;;6.00;99.90;;;;;;5088672;28;20052;-77
2022/01/22 09:15:19;;;;;;;2.75;0.90;;;6.10;99.90;;;;;;5078829;28;20090;-75
2022/01/22 09:17:47;;;;;;;2.85;1.00;;;6.10;99.90;;;;;;5084937;28;20046;-77
2022/01/22 09:20:29;;;;;;;5.18;1.00;;;6.10;99.90;;;;;;5088862;28;20052;-74
2022/01/22 09:22:55;;;;;;;2.28;0.90;;;6.10;99.90;;;;;;5079356;28;20116;-75
2022/01/22 09:25:21;;;;;;;2.00;0.88;;;6.10;99.90;;;;;;5086865;28;20721;-72
2022/01/22 09:27:47;;;;;;;2.42;1.20;;;6.10;99.90;;;;;;5082142;28;20094;-73
2022/01/22 09:30:12;;;;;;;2.58;0.90;;;6.10;99.90;;;;;;5085213;28;20040;-73
2022/01/22 09:32:38;;;;;;;3.28;0.90;;;6.10;99.90;;;;;;5086325;28;20107;-74
2022/01/22 09:35:04;;;;;;;3.28;1.00;;;6.10;99.90;;;;;;5077354;28;20059;-75
2022/01/22 09:37:31;;;;;;;3.28;1.00;;;6.20;99.90;;;;;;5093470;28;20659;-74
2022/01/22 09:39:57;;;;;;;5.70;1.40;;;6.20;99.90;;;;;;5097762;28;20102;-74
2022/01/22 09:42:23;;;;;;;3.05;1.15;;;6.20;99.90;;;;;;5082800;28;20028;-73
2022/01/22 09:44:49;;;;;;;2.35;0.80;;;6.20;99.90;;;;;;5078909;28;20458;-73
2022/01/22 09:47:19;;;;;;;2.50;1.10;;;6.20;99.90;;;;;;5076549;28;20041;-74
2022/01/22 09:49:45;;;;;;;5.18;1.10;;;6.30;99.90;;;;;;5081261;28;20062;-73
2022/01/22 09:52:12;;;;;;;4.13;1.20;;;6.20;99.90;;;;;;5081439;28;20040;-74
2022/01/22 09:54:37;;;;;;;3.20;0.90;;;6.20;99.90;;;;;;5078688;28;20471;-73
2022/01/22 09:57:04;;;;;;;5.43;1.40;;;6.20;99.90;;;;;;5078402;28;20771;-74
2022/01/22 09:59:31;;;;;;;4.00;1.10;;;6.20;99.90;;;;;;5091040;28;20048;-74
2022/01/22 10:02:18;;;;;;;5.50;1.27;;;6.20;99.90;;;;;;5088285;28;20063;-73
2022/01/22 10:04:48;;;;;;;6.38;1.40;;;6.20;99.90;;;;;;5086662;28;20074;-72
2022/01/22 10:07:17;;;;;;;5.13;1.33;;;6.10;99.90;;;;;;5101652;28;20077;-73
2022/01/22 10:09:57;;;;;;;4.50;1.20;;;6.10;99.90;;;;;;5100135;28;20103;-75
2022/01/22 10:12:24;;;;;;;4.28;1.15;;;6.20;99.90;;;;;;5099480;28;20047;-74
2022/01/22 10:15:11;;;;;;;5.75;1.42;;;6.20;99.90;;;;;;5097675;28;20579;-75
2022/01/22 10:17:43;;;;;;;4.38;1.20;;;6.20;99.90;;;;;;5094509;28;20040;-73
2022/01/22 10:20:21;;;;;;;5.75;1.40;;;6.20;99.90;;;;;;5089528;28;20052;-73
2022/01/22 10:22:58;;;;;;;7.70;1.30;;;6.20;99.90;;;;;;5080595;28;20064;-74
2022/01/22 10:25:48;;;;;;;5.32;1.35;;;6.20;99.90;;;;;;5079351;28;20057;-74
2022/01/22 10:28:22;;;;;;;4.85;1.25;;;6.20;99.90;;;;;;5080736;28;20052;-74
2022/01/22 10:30:52;;;;;;;3.72;1.15;;;6.10;99.90;;;;;;5092088;28;20122;-74
2022/01/22 10:33:31;;;;;;;5.75;1.42;;;6.20;99.90;;;;;;5117925;28;20054;-75
2022/01/22 10:36:11;;;;;;;4.63;1.50;;;6.20;99.90;;;;;;5090039;28;20055;-74
2022/01/22 10:38:57;;;;;;;7.95;1.67;;;6.20;99.90;;;;;;5080446;28;20531;-75
2022/01/22 10:41:36;;;;;;;5.03;1.15;;;6.20;99.90;;;;;;5081069;28;20040;-74
2022/01/22 10:44:03;;;;;;;4.63;1.60;;;6.20;99.90;;;;;;5080983;28;20481;-74
2022/01/22 10:49:11;;;;;;;4.82;1.83;;;6.20;99.90;;;;;;5097268;28;20078;-75
2022/01/22 10:51:47;;;;;;;4.50;1.98;;;6.20;99.90;;;;;;5080014;28;20041;-75
2022/01/22 10:54:14;;;;;;;7.47;1.98;;;6.20;99.90;;;;;;5080763;28;20041;-75
2022/01/22 10:56:41;;;;;;;4.65;2.10;;;6.30;99.90;;;;;;5084489;28;20103;-76
2022/01/22 10:59:10;;;;;;;4.00;2.00;;;6.30;99.90;;;;;;5100957;28;20044;-73
2022/01/22 11:01:45;;;;;;;5.03;1.70;;;6.20;99.90;;;;;;5090495;28;20044;-74
2022/01/22 11:04:13;;;;;;;5.25;2.10;;;6.10;99.90;;;;;;5082963;28;20182;-73
2022/01/22 11:06:48;;;;;;;5.05;1.73;;;6.30;99.90;;;;;;5093542;28;20051;-74
2022/01/22 11:09:34;;;;;;;5.05;1.40;;;6.40;99.90;;;;;;5090507;28;20108;-72
2022/01/22 11:12:02;;;;;;;4.80;1.80;;;6.50;99.90;;;;;;5088582;28;20091;-73
2022/01/22 11:14:29;;;;;;;3.97;1.35;;;6.70;99.90;;;;;;5084041;28;20041;-71
2022/01/22 11:16:56;;;;;;;6.10;1.70;;;6.80;99.90;;;;;;5088480;28;20052;-71
2022/01/22 11:19:32;;;;;;;6.53;3.03;;;6.90;99.90;;;;;;5092168;28;20067;-73
2022/01/22 11:22:10;;;;;;;6.10;1.70;;;7.00;99.90;;;;;;5096654;28;20047;-71
2022/01/22 11:24:47;;;;;;;6.05;1.50;;;7.20;99.90;;;;;;5091265;28;21095;-72
2022/01/22 11:27:15;;;;;;;4.35;1.30;;;7.20;99.90;;;;;;5078234;28;20050;-72
2022/01/22 11:29:46;;;;;;;5.28;1.80;;;7.10;99.90;;;;;;5098327;28;20033;-71
2022/01/22 11:32:14;;;;;;;5.68;1.55;;;7.10;99.90;;;;;;5087177;28;20048;-71
2022/01/22 11:34:42;;;;;;;3.40;1.45;;;7.10;99.90;;;;;;5094639;28;20060;-73
2022/01/22 11:37:22;;;;;;;3.88;1.40;;;7.10;99.90;;;;;;5101862;28;20131;-71
2022/01/22 11:40:07;;;;;;;5.05;1.65;;;7.10;99.90;;;;;;5080011;28;20407;-71
2022/01/22 11:43:10;;;;;;;4.78;1.90;;;7.00;99.90;;;;;;5078678;28;20056;-72
2022/01/22 11:45:45;;;;;;;4.28;1.48;;;7.00;99.90;;;;;;5088272;28;20091;-70
2022/01/22 11:48:24;;;;;;;5.25;1.55;;;6.90;99.90;;;;;;5099679;28;20103;-72
2022/01/22 11:50:53;;;;;;;6.05;1.77;;;6.90;99.90;;;;;;5099499;28;20044;-72
2022/01/22 11:53:26;;;;;;;7.05;2.28;;;6.90;99.90;;;;;;5098956;28;20040;-73
2022/01/22 11:56:07;;;;;;;3.80;1.58;;;6.90;99.90;;;;;;5091111;28;20498;-74
2022/01/22 11:58:53;;;;;;;4.93;2.08;;;6.90;99.90;;;;;;5093764;28;20140;-72
2022/01/22 12:01:38;;;;;;;3.57;1.50;;;6.90;99.90;;;;;;5077951;28;20041;-71
2022/01/22 12:04:05;;;;;;;6.53;2.00;;;6.80;99.90;;;;;;5106965;28;20139;-73
2022/01/22 12:06:31;;;;;;;4.95;1.92;;;6.80;99.90;;;;;;5084791;28;20442;-73
2022/01/22 12:09:12;;;;;;;8.50;2.13;;;6.70;99.90;;;;;;5089790;28;20496;-73
2022/01/22 12:14:56;;;;;;;6.90;2.03;;;6.70;99.90;;;;;;5099982;28;20404;-73
2022/01/22 12:18:24;;;;;;;6.07;2.25;;;6.60;99.90;;;;;;5083294;28;20058;-73
2022/01/22 12:23:18;;;;;;;7.30;2.70;;;6.60;99.90;;;;;;5094844;28;20052;-74
2022/01/22 12:25:44;;;;;;;6.85;2.35;;;6.60;99.90;;;;;;5091925;28;20043;-72
2022/01/22 12:28:12;;;;;;;8.35;2.40;;;6.50;99.90;;;;;;5089692;28;20093;-73
2022/01/22 12:30:38;;;;;;;8.77;2.83;;;6.50;99.90;;;;;;5090772;28;20048;-74
2022/01/22 12:33:11;;;;;;;7.60;2.55;;;6.60;99.90;;;;;;5087106;28;20047;-73
2022/01/22 12:35:48;;;;;;;7.43;3.30;;;6.50;99.90;;;;;;5079154;28;20078;-74
2022/01/22 12:38:31;;;;;;;9.43;2.83;;;6.50;99.90;;;;;;5079796;28;20066;-73
2022/01/22 12:47:00;;;;;;;12.45;2.83;;;6.50;99.90;;;;;;5086308;28;20060;-74
2022/01/22 12:49:27;;;;;;;9.38;2.58;;;6.50;99.90;;;;;;5094196;28;20048;-75
2022/01/22 12:52:13;;;;;;;7.72;2.83;;;6.60;99.90;;;;;;5083520;28;20129;-73
2022/01/22 12:54:47;;;;;;;10.15;3.28;;;6.50;99.90;;;;;;5099122;28;20059;-72
2022/01/22 12:57:15;;;;;;;10.02;2.95;;;6.50;99.90;;;;;;5098789;28;20117;-73
2022/01/22 13:00:11;;;;;;;9.35;2.85;;;6.50;99.90;;;;;;5093308;28;20522;-77
2022/01/22 13:02:56;;;;;;;8.05;2.97;;;6.50;99.90;;;;;;5083864;28;20040;-74
2022/01/22 13:05:25;;;;;;;8.80;3.13;;;6.50;99.90;;;;;;5080843;28;20044;-74
2022/01/22 13:07:55;;;;;;;8.00;3.13;;;6.50;99.90;;;;;;5076429;28;20074;-74
2022/01/22 13:10:31;;;;;;;9.50;3.60;;;6.50;99.90;;;;;;5079219;28;20043;-74
2022/01/22 13:12:57;;;;;;;10.13;3.47;;;6.50;99.90;;;;;;5077897;28;20048;-73
2022/01/22 13:15:23;;;;;;;8.98;3.70;;;6.50;99.90;;;;;;5078983;28;20141;-72
2022/01/22 13:17:58;;;;;;;8.93;3.72;;;6.50;99.90;;;;;;5077099;28;20052;-74
2022/01/22 13:20:28;;;;;;;10.45;3.17;;;6.50;99.90;;;;;;5092035;28;20104;-74
2022/01/22 13:22:56;;;;;;;8.10;3.40;;;6.50;99.90;;;;;;5098205;28;20043;-73
2022/01/22 13:25:22;;;;;;;7.25;3.30;;;6.40;99.90;;;;;;5083073;28;20044;-73
2022/01/22 13:28:04;;;;;;;8.20;3.40;;;6.50;99.90;;;;;;5084029;28;20111;-73
2022/01/22 13:30:36;;;;;;;7.90;3.75;;;6.50;99.90;;;;;;5107625;28;20088;-74
2022/01/22 13:33:18;;;;;;;8.95;3.03;;;6.50;99.90;;;;;;5107362;28;20096;-72
2022/01/22 13:49:03;;;;;;;12.30;3.33;;;6.40;99.90;;;;;;5082563;28;20052;-75
2022/01/22 13:51:33;;;;;;;10.32;3.20;;;6.50;99.90;;;;;;5081882;28;20419;-74
2022/01/22 13:54:00;;;;;;;7.72;2.92;;;6.50;99.90;;;;;;5082494;28;20127;-77
2022/01/22 13:57:07;;;;;;;11.85;4.47;;;6.50;99.90;;;;;;5081518;28;20541;-74
2022/01/22 13:59:39;;;;;;;11.50;3.97;;;6.50;99.90;;;;;;5019204;28;20057;-76
2022/01/22 14:05:09;;;;;;;9.82;3.40;;;6.50;99.90;;;;;;5058274;28;20083;-75
2022/01/22 14:10:25;;;;;;;11.45;2.95;;;6.50;99.90;;;;;;5094543;28;20044;-75
2022/01/22 14:12:54;;;;;;;10.45;3.00;;;6.50;99.90;;;;;;5091549;28;20036;-76
2022/01/22 14:15:27;;;;;;;7.70;2.65;;;6.50;99.90;;;;;;5084157;28;20091;-74
2022/01/22 14:17:54;;;;;;;9.50;2.97;;;6.50;99.90;;;;;;5084344;28;20095;-76
2022/01/22 14:20:27;;;;;;;6.22;2.30;;;6.50;99.90;;;;;;5098824;28;20048;-75
2022/01/22 14:23:00;;;;;;;9.45;2.50;;;6.50;99.90;;;;;;5095823;28;20039;-73
2022/01/22 14:25:26;;;;;;;8.00;3.13;;;6.50;99.90;;;;;;5083119;28;20051;-74
2022/01/22 14:30:54;;;;;;;9.43;2.67;;;6.50;99.90;;;;;;5092764;28;20112;-73
2022/01/22 14:33:20;;;;;;;6.65;2.35;;;6.40;99.90;;;;;;5092728;28;20060;-74
2022/01/22 14:36:01;;;;;;;8.60;2.25;;;6.40;99.90;;;;;;5082465;28;20049;-75
2022/01/22 14:46:53;;;;;;;8.27;2.28;;;6.40;99.90;;;;;;5095582;28;20080;-76
2022/01/22 14:49:25;;;;;;;6.43;2.00;;;6.30;99.90;;;;;;5090279;28;20048;-74
2022/01/22 14:51:50;;;;;;;7.32;2.45;;;6.30;99.90;;;;;;5087092;28;20044;-74
2022/01/22 14:54:19;;;;;;;7.13;2.17;;;6.30;99.90;;;;;;5092315;28;20047;-77
2022/01/22 14:56:45;;;;;;;9.27;1.92;;;6.30;99.90;;;;;;5089496;28;20055;-73
2022/01/22 14:59:10;;;;;;;7.32;2.92;;;6.30;99.90;;;;;;5090301;28;20036;-76
2022/01/22 15:01:36;;;;;;;12.60;2.95;;;6.30;99.90;;;;;;5091698;28;20709;-76
2022/01/22 15:04:02;;;;;;;9.25;2.47;;;6.30;99.90;;;;;;5087328;28;20608;-77
2022/01/22 15:06:27;;;;;;;7.10;2.20;;;6.30;99.90;;;;;;5092507;28;20484;-79
2022/01/22 15:08:53;;;;;;;9.38;3.33;;;6.30;99.90;;;;;;5097651;28;20041;-80
2022/01/22 15:11:20;;;;;;;8.02;1.63;;;6.30;99.90;;;;;;5091578;28;20048;-77
2022/01/22 15:13:46;;;;;;;5.40;2.92;;;6.20;99.90;;;;;;5090597;28;20100;-77
2022/01/22 15:16:18;;;;;;;5.38;2.45;;;6.20;99.90;;;;;;5088822;28;20039;-77
2022/01/22 15:21:11;;;;;;;3.70;1.90;;;6.20;99.90;;;;;;5089231;28;20066;-76
2022/01/22 15:23:38;;;;;;;6.57;1.70;;;6.20;99.90;;;;;;5089781;28;20033;-79
2022/01/22 15:26:05;;;;;;;5.53;2.25;;;6.10;99.90;;;;;;5087715;28;20055;-77
2022/01/22 15:28:35;;;;;;;4.15;1.23;;;6.10;99.90;;;;;;5087327;28;21024;-77